Time;durP1;ratioP1;P1;durP2;ratioP2;P2;SDS_P1;SDS_P2;PMS_P1;PMS_P2;Temp;Humidity;BMP_temperature;BMP_pressure;BME280_temperature;BME280_humidity;BME280_pressure;Samples;Min_cycle;Max_cycle;Signal;HPM_P1;HPM_P2
2024/01/23 00:00:42;;;;;;;;;;;;;;;-15.90;65.53;98339.41;6244673;28;19921;-66
2024/01/23 00:03:43;;;;;;;;;;;;;;;-15.96;65.53;98341.56;6245152;28;20717;-67
2024/01/23 00:06:47;;;;;;;;;;;;;;;-16.02;65.64;98341.16;6245940;28;20466;-68
2024/01/23 00:09:53;;;;;;;;;;;;;;;-16.05;65.84;98346.00;6245201;28;19928;-66
2024/01/23 00:12:54;;;;;;;;;;;;;;;-16.09;65.41;98344.09;6245215;28;20006;-66
2024/01/23 00:15:57;;;;;;;;;;;;;;;-16.10;65.66;98333.16;6245312;28;19925;-66
2024/01/23 00:18:58;;;;;;;;;;;;;;;-16.16;65.63;98347.00;6262109;28;19920;-67
2024/01/23 00:21:59;;;;;;;;;;;;;;;-16.23;65.48;98347.41;6269343;28;19926;-67
2024/01/23 00:25:02;;;;;;;;;;;;;;;-16.30;65.57;98347.03;6269090;28;20030;-67
2024/01/23 00:28:06;;;;;;;;;;;;;;;-16.35;65.62;98340.81;6252413;28;20019;-66
2024/01/23 00:31:07;;;;;;;;;;;;;;;-16.38;65.34;98339.75;6269135;28;19920;-67
2024/01/23 00:34:11;;;;;;;;;;;;;;;-16.46;65.37;98346.84;6269775;28;20320;-67
2024/01/23 00:37:15;;;;;;;;;;;;;;;-16.49;65.22;98343.25;6269782;28;19931;-66
2024/01/23 00:40:16;;;;;;;;;;;;;;;-16.52;65.38;98347.31;6268890;28;19921;-67
2024/01/23 00:43:21;;;;;;;;;;;;;;;-16.56;65.35;98341.97;6269706;28;20298;-67
2024/01/23 00:46:25;;;;;;;;;;;;;;;-16.57;65.61;98342.75;6269686;28;19921;-67
2024/01/23 00:49:31;;;;;;;;;;;;;;;-16.58;65.56;98341.03;6269422;28;20394;-67
2024/01/23 00:52:33;;;;;;;;;;;;;;;-16.59;65.65;98334.22;6269396;28;19920;-67
2024/01/23 00:55:34;;;;;;;;;;;;;;;-16.63;65.60;98342.38;6268827;28;19920;-66
2024/01/23 00:58:35;;;;;;;;;;;;;;;-16.71;65.62;98339.34;6268802;28;19920;-66
2024/01/23 01:01:43;;;;;;;;;;;;;;;-16.75;65.57;98343.31;6268982;28;19973;-66
2024/01/23 01:04:46;;;;;;;;;;;;;;;-16.77;65.47;98337.34;6269473;28;20672;-67
2024/01/23 01:07:50;;;;;;;;;;;;;;;-16.80;65.44;98342.19;6269087;28;19927;-66
2024/01/23 01:10:51;;;;;;;;;;;;;;;-16.84;65.31;98345.28;6268927;28;19920;-67
2024/01/23 01:13:52;;;;;;;;;;;;;;;-16.85;65.36;98340.16;6268335;28;20439;-66
2024/01/23 01:16:53;;;;;;;;;;;;;;;-16.85;65.62;98335.97;6268817;28;20325;-66
2024/01/23 01:19:56;;;;;;;;;;;;;;;-16.90;65.48;98331.41;6244300;28;19921;-67
2024/01/23 01:23:02;;;;;;;;;;;;;;;-17.01;65.34;98339.16;6244180;28;20382;-67
2024/01/23 01:26:03;;;;;;;;;;;;;;;-17.08;65.39;98331.09;6243503;28;19928;-66
2024/01/23 01:29:04;;;;;;;;;;;;;;;-17.13;65.49;98322.38;6244002;28;19921;-67
2024/01/23 01:32:05;;;;;;;;;;;;;;;-17.18;65.27;98336.28;6243795;28;19921;-66
2024/01/23 01:35:06;;;;;;;;;;;;;;;-17.24;65.55;98335.09;6244071;28;20310;-67
2024/01/23 01:38:07;;;;;;;;;;;;;;;-17.30;65.40;98333.84;6242535;28;19983;-66
2024/01/23 01:41:08;;;;;;;;;;;;;;;-17.31;65.47;98343.03;6246220;28;19920;-67
2024/01/23 01:44:12;;;;;;;;;;;;;;;-17.29;65.54;98346.53;6249153;28;19925;-66
2024/01/23 01:47:13;;;;;;;;;;;;;;;-17.27;65.59;98344.97;6248231;28;19928;-66
2024/01/23 01:50:17;;;;;;;;;;;;;;;-17.26;65.59;98336.66;6248082;28;20354;-66
2024/01/23 01:53:18;;;;;;;;;;;;;;;-17.22;65.40;98336.09;6248976;28;19928;-67
2024/01/23 01:56:20;;;;;;;;;;;;;;;-17.17;65.38;98330.50;6248662;28;19928;-67
2024/01/23 01:59:22;;;;;;;;;;;;;;;-17.12;65.40;98330.03;6248919;28;20346;-68
2024/01/23 02:02:24;;;;;;;;;;;;;;;-17.10;65.15;98333.50;6248464;28;20489;-67
2024/01/23 02:05:25;;;;;;;;;;;;;;;-17.05;65.34;98338.84;6248444;28;19933;-67
2024/01/23 02:08:27;;;;;;;;;;;;;;;-17.02;65.29;98341.56;6230057;28;19925;-66
2024/01/23 02:11:30;;;;;;;;;;;;;;;-16.94;65.34;98340.41;6248729;28;19921;-65
2024/01/23 02:14:31;;;;;;;;;;;;;;;-16.87;65.16;98350.09;6247510;28;20279;-66
2024/01/23 02:17:32;;;;;;;;;;;;;;;-16.84;64.94;98347.81;6247694;28;19921;-67
2024/01/23 02:20:33;;;;;;;;;;;;;;;-16.80;64.95;98349.75;6230017;28;19931;-67
2024/01/23 02:23:34;;;;;;;;;;;;;;;-16.80;64.58;98349.75;6247301;28;19921;-67
2024/01/23 02:26:37;;;;;;;;;;;;;;;-16.75;64.35;98353.41;6247478;28;19932;-67
2024/01/23 02:29:41;;;;;;;;;;;;;;;-16.62;64.31;98365.13;6247729;28;19964;-67
2024/01/23 02:32:45;;;;;;;;;;;;;;;-16.44;63.64;98351.94;6247476;28;19921;-66
2024/01/23 02:35:46;;;;;;;;;;;;;;;-16.33;63.61;98356.91;6246645;28;19921;-66
2024/01/23 02:38:48;;;;;;;;;;;;;;;-16.24;63.88;98364.19;6247109;28;20457;-66
2024/01/23 02:41:51;;;;;;;;;;;;;;;-16.17;64.15;98355.34;6247681;28;20513;-67
2024/01/23 02:44:52;;;;;;;;;;;;;;;-16.04;63.93;98357.88;6247621;28;20258;-66
2024/01/23 02:47:53;;;;;;;;;;;;;;;-15.93;64.01;98363.56;6229338;28;19924;-67
2024/01/23 02:50:56;;;;;;;;;;;;;;;-15.82;63.99;98357.53;6246982;28;19921;-66
2024/01/23 02:53:59;;;;;;;;;;;;;;;-15.81;63.70;98358.41;6246241;28;19917;-66
2024/01/23 02:57:05;;;;;;;;;;;;;;;-15.94;63.50;98365.19;6246532;28;20004;-67
2024/01/23 03:00:09;;;;;;;;;;;;;;;-15.86;64.09;98368.22;6246968;28;19921;-67
2024/01/23 03:03:12;;;;;;;;;;;;;;;-15.78;63.88;98373.72;6247128;28;19921;-67
2024/01/23 03:06:16;;;;;;;;;;;;;;;-15.91;63.62;98370.44;6246336;28;19932;-67
2024/01/23 03:09:22;;;;;;;;;;;;;;;-15.75;63.80;98371.38;6229043;28;20063;-66
2024/01/23 03:12:23;;;;;;;;;;;;;;;-15.80;63.84;98375.28;6245910;28;20059;-67
2024/01/23 03:15:24;;;;;;;;;;;;;;;-15.85;63.82;98380.91;6246214;28;19921;-66
2024/01/23 03:18:26;;;;;;;;;;;;;;;-15.83;63.61;98372.56;6258787;28;19928;-67
2024/01/23 03:21:27;;;;;;;;;;;;;;;-15.80;63.54;98357.63;6270525;28;19975;-66
2024/01/23 03:24:28;;;;;;;;;;;;;;;-15.89;64.01;98363.84;6270400;28;19973;-67
2024/01/23 03:27:29;;;;;;;;;;;;;;;-15.95;63.66;98366.00;6271219;28;19921;-66
2024/01/23 03:30:33;;;;;;;;;;;;;;;-15.87;64.14;98367.34;6270997;28;19920;-67
2024/01/23 03:33:34;;;;;;;;;;;;;;;-15.80;63.49;98368.56;6270599;28;20059;-67
2024/01/23 03:36:40;;;;;;;;;;;;;;;-15.84;63.72;98366.66;6270872;28;19927;-67
2024/01/23 03:39:44;;;;;;;;;;;;;;;-15.88;63.28;98365.59;6271060;28;20301;-66
2024/01/23 03:42:50;;;;;;;;;;;;;;;-16.05;63.51;98361.13;6270785;28;19928;-66
2024/01/23 03:45:54;;;;;;;;;;;;;;;-16.21;63.67;98369.41;6253310;28;19928;-67
2024/01/23 03:48:57;;;;;;;;;;;;;;;-16.33;63.70;98359.44;6270241;28;20461;-67
2024/01/23 03:52:03;;;;;;;;;;;;;;;-16.41;63.89;98355.56;6270665;28;20063;-67
2024/01/23 03:55:04;;;;;;;;;;;;;;;-16.41;64.19;98360.59;6269926;28;20011;-67
2024/01/23 03:58:05;;;;;;;;;;;;;;;-16.42;63.94;98363.88;6270602;28;19920;-67
2024/01/23 04:01:11;;;;;;;;;;;;;;;-16.49;64.07;98371.84;6266799;28;19920;-66
2024/01/23 04:04:12;;;;;;;;;;;;;;;-16.52;64.08;98366.59;6294307;28;19928;-67
2024/01/23 04:07:13;;;;;;;;;;;;;;;-16.50;64.41;98375.09;6294527;28;19920;-67
2024/01/23 04:10:15;;;;;;;;;;;;;;;-16.63;64.36;98392.75;6294395;28;20382;-67
2024/01/23 04:13:16;;;;;;;;;;;;;;;-16.71;64.40;98386.34;6294698;28;19924;-67
2024/01/23 04:16:17;;;;;;;;;;;;;;;-16.76;64.33;98391.09;6294588;28;19920;-68
2024/01/23 04:19:18;;;;;;;;;;;;;;;-16.81;64.51;98387.38;6274556;28;20019;-66
2024/01/23 04:22:20;;;;;;;;;;;;;;;-16.85;64.32;98386.31;6269705;28;20061;-67
2024/01/23 04:25:23;;;;;;;;;;;;;;;-16.90;64.50;98397.75;6269966;28;19928;-67
2024/01/23 04:28:25;;;;;;;;;;;;;;;-16.85;64.23;98396.41;6269947;28;19921;-67
2024/01/23 04:31:28;;;;;;;;;;;;;;;-16.79;64.33;98401.84;6269769;28;19921;-67
2024/01/23 04:34:29;;;;;;;;;;;;;;;-16.69;64.37;98400.78;6269548;28;20394;-68
2024/01/23 04:37:30;;;;;;;;;;;;;;;-16.54;64.44;98409.31;6269501;28;19974;-67
2024/01/23 04:40:31;;;;;;;;;;;;;;;-16.47;64.10;98410.59;6269228;28;19947;-67
2024/01/23 04:43:32;;;;;;;;;;;;;;;-16.42;64.03;98411.75;6269625;28;19920;-66
2024/01/23 04:46:35;;;;;;;;;;;;;;;-16.40;63.77;98412.72;6269185;28;19917;-67
2024/01/23 04:49:38;;;;;;;;;;;;;;;-16.34;64.07;98415.63;6269488;28;19921;-67
2024/01/23 04:52:40;;;;;;;;;;;;;;;-16.28;63.69;98416.81;6269324;28;19917;-67
2024/01/23 04:55:41;;;;;;;;;;;;;;;-16.21;63.58;98424.88;6267719;28;19928;-67
2024/01/23 04:58:41;;;;;;;;;;;;;;;-16.10;63.21;98428.06;6269098;28;19956;-67
2024/01/23 05:01:42;;;;;;;;;;;;;;;-16.05;63.30;98421.66;6252943;28;19995;-67
2024/01/23 05:04:46;;;;;;;;;;;;;;;-15.93;63.23;98432.53;6244121;28;19924;-67
2024/01/23 05:07:52;;;;;;;;;;;;;;;-15.75;62.83;98435.31;6244619;28;20032;-67
2024/01/23 05:10:53;;;;;;;;;;;;;;;-15.56;62.74;98442.34;6243841;28;19920;-67
2024/01/23 05:13:58;;;;;;;;;;;;;;;-15.50;62.46;98444.38;6244424;28;20331;-67
2024/01/23 05:17:03;;;;;;;;;;;;;;;-15.39;62.51;98456.88;6243456;28;19921;-66
2024/01/23 05:20:07;;;;;;;;;;;;;;;-15.23;62.31;98450.22;6243402;28;20063;-67
2024/01/23 05:23:08;;;;;;;;;;;;;;;-15.14;62.18;98453.31;6242888;28;19943;-68
2024/01/23 05:26:09;;;;;;;;;;;;;;;-15.03;61.76;98449.78;6244209;28;19921;-67
2024/01/23 05:29:13;;;;;;;;;;;;;;;-15.04;61.47;98453.06;6244250;28;20433;-67
2024/01/23 05:32:14;;;;;;;;;;;;;;;-14.98;61.94;98458.47;6243443;28;20019;-66
2024/01/23 05:35:15;;;;;;;;;;;;;;;-14.86;61.96;98467.56;6243330;28;19921;-67
2024/01/23 05:38:16;;;;;;;;;;;;;;;-14.74;61.85;98459.09;6243043;28;19921;-66
2024/01/23 05:41:21;;;;;;;;;;;;;;;-14.58;61.53;98460.84;6243662;28;19929;-67
2024/01/23 05:44:25;;;;;;;;;;;;;;;-14.61;61.30;98463.19;6243962;28;19921;-67
2024/01/23 05:47:26;;;;;;;;;;;;;;;-14.52;61.29;98466.28;6243195;28;19917;-67
2024/01/23 05:50:29;;;;;;;;;;;;;;;-14.31;61.61;98460.66;6243005;28;19921;-68
2024/01/23 05:53:30;;;;;;;;;;;;;;;-14.14;61.11;98472.63;6243297;28;20007;-67
2024/01/23 05:56:33;;;;;;;;;;;;;;;-14.05;60.75;98462.13;6243716;28;19925;-66
2024/01/23 05:59:34;;;;;;;;;;;;;;;-13.98;60.99;98455.75;6243199;28;19921;-67
2024/01/23 06:02:35;;;;;;;;;;;;;;;-13.99;60.67;98465.00;6244749;28;19936;-67
2024/01/23 06:05:38;;;;;;;;;;;;;;;-13.91;60.71;98456.19;6243042;28;19928;-66
2024/01/23 06:08:42;;;;;;;;;;;;;;;-13.83;61.04;98457.50;6243438;28;20410;-67
2024/01/23 06:11:45;;;;;;;;;;;;;;;-13.70;61.15;98464.13;6243588;28;20284;-67
2024/01/23 06:14:48;;;;;;;;;;;;;;;-13.55;61.18;98458.16;6243160;28;19921;-67
2024/01/23 06:17:49;;;;;;;;;;;;;;;-13.44;60.84;98462.13;6233879;28;19921;-67
2024/01/23 06:20:50;;;;;;;;;;;;;;;-13.32;61.05;98462.78;6268197;28;19921;-66
2024/01/23 06:23:52;;;;;;;;;;;;;;;-13.20;61.10;98468.47;6267525;28;20390;-67
2024/01/23 06:26:55;;;;;;;;;;;;;;;-13.07;60.85;98469.13;6269049;28;20457;-67
2024/01/23 06:29:56;;;;;;;;;;;;;;;-12.98;60.34;98469.63;6272455;28;20423;-67
2024/01/23 06:32:59;;;;;;;;;;;;;;;-12.92;60.36;98470.78;6273183;28;19920;-67
2024/01/23 06:36:03;;;;;;;;;;;;;;;-12.84;60.25;98463.59;6272514;28;19928;-67
2024/01/23 06:39:05;;;;;;;;;;;;;;;-12.72;60.21;98459.16;6272225;28;19924;-67
2024/01/23 06:42:08;;;;;;;;;;;;;;;-12.62;60.31;98454.53;6271837;28;19947;-66
2024/01/23 06:45:12;;;;;;;;;;;;;;;-12.47;60.28;98460.41;6272107;28;19921;-67
2024/01/23 06:48:13;;;;;;;;;;;;;;;-12.35;59.85;98461.00;6271808;28;20279;-67
2024/01/23 06:51:19;;;;;;;;;;;;;;;-12.23;60.01;98464.19;6272310;28;20390;-67
2024/01/23 06:54:23;;;;;;;;;;;;;;;-12.05;59.62;98460.81;6272472;28;19920;-67
2024/01/23 06:57:26;;;;;;;;;;;;;;;-11.53;59.45;98468.31;6272063;28;19963;-67
2024/01/23 07:00:28;;;;;;;;;;;;;;;-6.59;56.32;98462.19;6271600;28;19928;-67
2024/01/23 07:03:29;;;;;;;;;;;;;;;-0.26;48.69;98467.94;6272076;28;20078;-67
2024/01/23 07:06:31;;;;;;;;;;;;;;;5.08;40.31;98459.13;6253998;28;20299;-68
2024/01/23 07:09:32;;;;;;;;;;;;;;;9.10;36.44;98462.06;6253728;28;20318;-68
2024/01/23 07:12:35;;;;;;;;;;;;;;;12.18;32.30;98460.41;6271985;28;19921;-67
2024/01/23 07:15:38;;;;;;;;;;;;;;;14.79;30.26;98458.53;6271491;28;19924;-67
2024/01/23 07:18:39;;;;;;;;;;;;;;;16.73;25.60;98463.63;6256270;28;20529;-67
2024/01/23 07:21:41;;;;;;;;;;;;;;;18.13;22.16;98451.59;6246537;28;20015;-68
2024/01/23 07:24:43;;;;;;;;;;;;;;;19.44;29.11;98458.94;6246963;28;19921;-68
2024/01/23 07:27:44;;;;;;;;;;;;;;;20.63;27.76;98459.47;6246328;28;19921;-67
2024/01/23 07:30:47;;;;;;;;;;;;;;;21.47;25.97;98457.91;6228758;28;19920;-66
2024/01/23 07:33:48;;;;;;;;;;;;;;;22.19;21.79;98458.94;6246980;28;19943;-67
2024/01/23 07:36:49;;;;;;;;;;;;;;;23.03;20.63;98453.28;6246692;28;20301;-67
2024/01/23 07:39:52;;;;;;;;;;;;;;;23.54;22.74;98446.78;6245979;28;19921;-68
2024/01/23 07:42:57;;;;;;;;;;;;;;;24.24;17.90;98438.47;6246569;28;19921;-69
2024/01/23 07:46:01;;;;;;;;;;;;;;;24.87;17.73;98441.28;6246200;28;19920;-68
2024/01/23 07:49:02;;;;;;;;;;;;;;;25.14;16.88;98436.81;6246417;28;20011;-69
2024/01/23 07:52:07;;;;;;;;;;;;;;;25.44;17.13;98427.53;6246301;28;20426;-69
2024/01/23 07:55:08;;;;;;;;;;;;;;;25.61;21.43;98431.22;6245356;28;19928;-68
2024/01/23 07:58:14;;;;;;;;;;;;;;;25.64;18.11;98429.03;6246003;28;19921;-69
2024/01/23 08:01:18;;;;;;;;;;;;;;;25.51;19.47;98426.75;6246336;28;20397;-69
2024/01/23 08:04:24;;;;;;;;;;;;;;;25.89;14.81;98427.41;6245957;28;19921;-68
2024/01/23 08:07:28;;;;;;;;;;;;;;;26.35;14.96;98427.97;6227709;28;20448;-67
2024/01/23 08:10:30;;;;;;;;;;;;;;;26.41;16.25;98427.34;6245006;28;19928;-67
2024/01/23 08:13:31;;;;;;;;;;;;;;;26.67;21.05;98431.88;6245260;28;19925;-68
2024/01/23 08:16:34;;;;;;;;;;;;;;;26.85;14.26;98426.34;6245574;28;19925;-67
2024/01/23 08:19:39;;;;;;;;;;;;;;;26.79;15.59;98419.75;6244757;28;20027;-66
2024/01/23 08:22:41;;;;;;;;;;;;;;;26.83;15.12;98418.41;6245599;28;19928;-67
2024/01/23 08:25:48;;;;;;;;;;;;;;;26.88;15.46;98407.94;6245663;28;20413;-67
2024/01/23 08:28:51;;;;;;;;;;;;;;;26.91;13.26;98405.94;6244775;28;19921;-67
2024/01/23 08:31:55;;;;;;;;;;;;;;;26.58;17.27;98411.22;6245172;28;20012;-66
2024/01/23 08:34:56;;;;;;;;;;;;;;;26.25;14.76;98416.47;6245200;28;19921;-67
2024/01/23 08:37:59;;;;;;;;;;;;;;;26.24;13.50;98409.38;6245190;28;19917;-68
2024/01/23 08:41:00;;;;;;;;;;;;;;;26.37;11.47;98415.19;6244809;28;19927;-67
2024/01/23 08:44:02;;;;;;;;;;;;;;;26.65;14.80;98417.69;6244419;28;19921;-67
2024/01/23 08:47:06;;;;;;;;;;;;;;;26.91;14.70;98420.28;6244302;28;19924;-67
2024/01/23 08:50:08;;;;;;;;;;;;;;;27.00;13.27;98411.19;6244377;28;19964;-69
2024/01/23 08:53:10;;;;;;;;;;;;;;;26.92;12.44;98407.63;6226401;28;20301;-68
2024/01/23 08:56:17;;;;;;;;;;;;;;;26.41;12.01;98400.38;6244662;28;19921;-68
2024/01/23 08:59:21;;;;;;;;;;;;;;;26.17;13.79;98403.78;6244682;28;19921;-69
2024/01/23 09:02:22;;;;;;;;;;;;;;;26.38;12.81;98394.44;6244249;28;19921;-68
2024/01/23 09:05:26;;;;;;;;;;;;;;;26.47;12.74;98392.59;6244490;28;19921;-69
2024/01/23 09:08:26;;;;;;;;;;;;;;;26.54;16.58;98399.94;6243704;28;20367;-68
2024/01/23 09:11:27;;;;;;;;;;;;;;;26.42;16.44;98396.66;6243502;28;20542;-68
2024/01/23 09:14:28;;;;;;;;;;;;;;;26.21;17.50;98398.91;6244063;28;19921;-68
2024/01/23 09:17:30;;;;;;;;;;;;;;;26.22;17.66;98394.38;6243572;28;19928;-68
2024/01/23 09:20:33;;;;;;;;;;;;;;;26.30;18.00;98392.56;6243718;28;19921;-67
2024/01/23 09:23:39;;;;;;;;;;;;;;;26.36;17.45;98381.13;6244438;28;20426;-67
2024/01/23 09:26:42;;;;;;;;;;;;;;;26.37;16.16;98377.41;6243471;28;19921;-68
2024/01/23 09:29:46;;;;;;;;;;;;;;;26.33;17.38;98373.34;6244391;28;20013;-67
2024/01/23 09:32:53;;;;;;;;;;;;;;;26.18;17.63;98367.72;6244252;28;19921;-68
2024/01/23 09:35:57;;;;;;;;;;;;;;;26.01;17.44;98359.69;6225475;28;20019;-67
2024/01/23 09:38:58;;;;;;;;;;;;;;;25.83;16.83;98363.31;6243663;28;20011;-67
2024/01/23 09:42:01;;;;;;;;;;;;;;;25.64;13.45;98352.72;6243385;28;20023;-67
2024/01/23 09:45:14;;;;;;;;;;;;;;;24.81;12.38;98347.66;6243975;28;19921;-68
2024/01/23 09:48:17;;;;;;;;;;;;;;;23.52;13.12;98349.34;6243559;28;20337;-68
2024/01/23 09:51:21;;;;;;;;;;;;;;;22.73;11.95;98344.16;6243907;28;19921;-68
2024/01/23 09:54:27;;;;;;;;;;;;;;;22.30;14.56;98343.53;6243954;28;19920;-67
2024/01/23 09:57:28;;;;;;;;;;;;;;;21.87;14.42;98341.13;6244170;28;20373;-74
2024/01/23 10:00:35;;;;;;;;;;;;;;;21.36;13.11;98342.78;6243844;28;19921;-74
2024/01/23 10:03:36;;;;;;;;;;;;;;;20.61;14.90;98331.25;6248147;28;20006;-68
2024/01/23 10:06:40;;;;;;;;;;;;;;;19.92;13.84;98330.63;6248228;28;19928;-69
2024/01/23 10:09:47;;;;;;;;;;;;;;;19.57;13.64;98328.88;6248457;28;19921;-68
2024/01/23 10:12:49;;;;;;;;;;;;;;;19.56;15.82;98327.19;6247926;28;19927;-68
2024/01/23 10:15:53;;;;;;;;;;;;;;;19.70;12.76;98318.97;6230767;28;19921;-68
2024/01/23 10:18:57;;;;;;;;;;;;;;;19.72;16.63;98324.19;6248144;28;19917;-68
2024/01/23 10:22:00;;;;;;;;;;;;;;;19.32;17.35;98319.28;6248378;28;19921;-68
2024/01/23 10:25:10;;;;;;;;;;;;;;;18.79;17.61;98322.41;6248359;28;19917;-68
2024/01/23 10:28:13;;;;;;;;;;;;;;;18.22;17.66;98316.88;6230686;28;19920;-69
2024/01/23 10:31:18;;;;;;;;;;;;;;;17.82;18.58;98314.44;6247357;28;19925;-68
2024/01/23 10:34:19;;;;;;;;;;;;;;;17.62;17.99;98314.00;6247812;28;20074;-68
2024/01/23 10:37:24;;;;;;;;;;;;;;;17.48;17.84;98306.16;6247906;28;19920;-70
2024/01/23 10:40:31;;;;;;;;;;;;;;;17.16;18.30;98317.22;6247900;28;19928;-68
2024/01/23 10:43:35;;;;;;;;;;;;;;;16.00;18.51;98308.97;6247854;28;19925;-68
2024/01/23 10:46:36;;;;;;;;;;;;;;;12.51;20.38;98303.97;6247058;28;19927;-68
2024/01/23 10:49:41;;;;;;;;;;;;;;;8.51;23.11;98303.88;6247731;28;20026;-67
2024/01/23 10:52:46;;;;;;;;;;;;;;;5.32;25.94;98301.19;6247759;28;19925;-68
2024/01/23 10:55:48;;;;;;;;;;;;;;;3.04;28.21;98298.88;6229573;28;19928;-68
2024/01/23 10:58:58;;;;;;;;;;;;;;;1.37;28.99;98297.72;6246941;28;19939;-69
2024/01/23 11:02:05;;;;;;;;;;;;;;;0.09;30.56;98298.97;6247343;28;20310;-67
2024/01/23 11:05:07;;;;;;;;;;;;;;;-0.82;30.95;98300.53;6246894;28;19992;-67
2024/01/23 11:08:15;;;;;;;;;;;;;;;-1.54;31.11;98303.66;6247338;28;19978;-67
2024/01/23 11:11:26;;;;;;;;;;;;;;;-2.16;31.08;98298.91;6246567;28;19921;-67
2024/01/23 11:14:29;;;;;;;;;;;;;;;-2.71;31.62;98286.38;6247180;28;20032;-67
2024/01/23 11:17:35;;;;;;;;;;;;;;;-3.20;31.20;98284.13;6246997;28;19927;-68
2024/01/23 11:20:38;;;;;;;;;;;;;;;-3.61;31.35;98279.28;6246432;28;20368;-67
2024/01/23 11:23:41;;;;;;;;;;;;;;;-3.96;31.23;98280.47;6246611;28;19928;-68
2024/01/23 11:26:53;;;;;;;;;;;;;;;-4.30;31.52;98290.25;6246798;28;20349;-67
2024/01/23 11:29:58;;;;;;;;;;;;;;;-4.68;31.26;98282.75;6246814;28;20403;-66
2024/01/23 11:33:17;;;;;;;;;;;;;;;-5.04;31.58;98286.38;6245999;28;20287;-67
2024/01/23 11:36:23;;;;;;;;;;;;;;;-5.44;31.73;98293.25;6246617;28;19927;-67
2024/01/23 11:39:32;;;;;;;;;;;;;;;-5.80;31.79;98287.31;6246711;28;19921;-67
2024/01/23 11:42:41;;;;;;;;;;;;;;;-6.19;32.12;98290.75;6245925;28;19944;-68
2024/01/23 11:45:49;;;;;;;;;;;;;;;-6.55;32.51;98291.56;6246890;28;19993;-67
2024/01/23 11:48:53;;;;;;;;;;;;;;;-6.86;32.62;98297.59;6246537;28;19921;-66
2024/01/23 11:51:55;;;;;;;;;;;;;;;-7.17;32.80;98291.66;6246248;28;19928;-67
2024/01/23 11:54:56;;;;;;;;;;;;;;;-7.45;32.28;98290.88;6245650;28;19920;-68
2024/01/23 11:58:02;;;;;;;;;;;;;;;-7.77;32.79;98289.94;6246105;28;20387;-67
2024/01/23 12:01:08;;;;;;;;;;;;;;;-8.06;32.73;98285.66;6245872;28;20414;-68
2024/01/23 12:04:11;;;;;;;;;;;;;;;-8.38;32.95;98280.38;6246066;28;19920;-67
2024/01/23 12:07:12;;;;;;;;;;;;;;;-8.68;33.15;98290.50;6244686;28;19925;-68
2024/01/23 12:10:17;;;;;;;;;;;;;;;-8.93;33.49;98283.69;6245027;28;19928;-67
2024/01/23 12:13:24;;;;;;;;;;;;;;;-9.15;33.96;98290.59;6245091;28;19928;-67
2024/01/23 12:16:28;;;;;;;;;;;;;;;-9.33;34.15;98289.97;6245460;28;19925;-69
2024/01/23 12:19:44;;;;;;;;;;;;;;;-9.50;33.96;98292.75;6245718;28;19921;-69
2024/01/23 12:22:48;;;;;;;;;;;;;;;-9.69;34.33;98292.88;6245179;28;20012;-68
2024/01/23 12:25:50;;;;;;;;;;;;;;;-9.91;34.14;98285.25;6244185;28;19936;-69
2024/01/23 12:28:53;;;;;;;;;;;;;;;-10.11;34.36;98290.44;6245414;28;19972;-67
2024/01/23 12:31:59;;;;;;;;;;;;;;;-10.30;34.71;98286.38;6245303;28;19975;-68
2024/01/23 12:35:00;;;;;;;;;;;;;;;-10.48;34.59;98286.50;6245307;28;20055;-67
2024/01/23 12:38:03;;;;;;;;;;;;;;;-10.64;34.70;98286.69;6245218;28;19917;-67
2024/01/23 12:41:04;;;;;;;;;;;;;;;-10.79;34.94;98286.06;6243897;28;20375;-68
2024/01/23 12:44:05;;;;;;;;;;;;;;;-10.97;35.29;98284.50;6244245;28;20015;-68
2024/01/23 12:47:11;;;;;;;;;;;;;;;-11.14;35.20;98277.84;6244888;28;19927;-68
2024/01/23 12:50:22;;;;;;;;;;;;;;;-11.31;35.47;98277.13;6245055;28;19925;-67
2024/01/23 12:53:24;;;;;;;;;;;;;;;-11.45;35.72;98273.09;6244802;28;19980;-68
2024/01/23 12:56:26;;;;;;;;;;;;;;;-11.56;35.82;98285.34;6244249;28;19928;-69
2024/01/23 12:59:27;;;;;;;;;;;;;;;-11.69;36.24;98283.03;6244725;28;19928;-67
2024/01/23 13:02:30;;;;;;;;;;;;;;;-11.80;36.07;98275.84;6244557;28;19921;-68
2024/01/23 13:05:31;;;;;;;;;;;;;;;-11.91;36.00;98276.19;6227007;28;20280;-67
2024/01/23 13:08:35;;;;;;;;;;;;;;;-12.07;36.13;98279.69;6244531;28;20394;-68
2024/01/23 13:11:38;;;;;;;;;;;;;;;-12.22;36.21;98280.72;6244726;28;19921;-68
2024/01/23 13:14:45;;;;;;;;;;;;;;;-12.35;36.31;98278.41;6244721;28;19937;-68
2024/01/23 13:17:46;;;;;;;;;;;;;;;-12.46;37.02;98284.63;6243505;28;19921;-68
2024/01/23 13:20:49;;;;;;;;;;;;;;;-12.54;36.68;98278.31;6244204;28;19921;-67
2024/01/23 13:23:54;;;;;;;;;;;;;;;-12.62;37.08;98275.44;6244210;28;19921;-68
2024/01/23 13:26:58;;;;;;;;;;;;;;;-12.68;37.10;98278.53;6243466;28;20429;-69
2024/01/23 13:29:59;;;;;;;;;;;;;;;-12.71;37.44;98263.19;6243862;28;20020;-69
2024/01/23 13:33:03;;;;;;;;;;;;;;;-12.74;36.67;98257.94;6244313;28;19921;-69
2024/01/23 13:36:05;;;;;;;;;;;;;;;-12.83;37.12;98267.66;6242316;28;19943;-68
2024/01/23 13:39:18;;;;;;;;;;;;;;;-12.93;37.38;98270.53;6244078;28;19917;-68
2024/01/23 13:42:19;;;;;;;;;;;;;;;-13.02;37.52;98265.91;6243820;28;19921;-69
2024/01/23 13:45:26;;;;;;;;;;;;;;;-13.06;37.38;98261.47;6244145;28;20380;-68
2024/01/23 13:48:29;;;;;;;;;;;;;;;-13.11;37.46;98255.28;6243730;28;19917;-68
2024/01/23 13:51:30;;;;;;;;;;;;;;;-13.18;37.32;98264.25;6243542;28;19944;-69
2024/01/23 13:54:33;;;;;;;;;;;;;;;-13.26;37.71;98260.50;6244214;28;20019;-69
2024/01/23 13:57:36;;;;;;;;;;;;;;;-13.32;38.33;98265.25;6243755;28;20432;-67
2024/01/23 14:00:40;;;;;;;;;;;;;;;-13.34;37.97;98256.72;6243092;28;19920;-68
2024/01/23 14:03:43;;;;;;;;;;;;;;;-13.43;37.96;98259.66;6243949;28;19924;-68
2024/01/23 14:06:44;;;;;;;;;;;;;;;-13.50;38.37;98260.16;6243335;28;19947;-68
2024/01/23 14:09:45;;;;;;;;;;;;;;;-13.56;37.64;98259.81;6243378;28;20391;-68
2024/01/23 14:12:49;;;;;;;;;;;;;;;-13.65;37.63;98260.22;6226404;28;19920;-67
2024/01/23 14:15:55;;;;;;;;;;;;;;;-13.73;37.72;98251.34;6243506;28;19921;-68
2024/01/23 14:19:10;;;;;;;;;;;;;;;-13.82;38.47;98243.28;6242443;28;19924;-68
2024/01/23 14:22:13;;;;;;;;;;;;;;;-13.91;38.47;98250.41;6243101;28;19928;-67
2024/01/23 14:25:18;;;;;;;;;;;;;;;-14.03;38.03;98245.59;6243597;28;20438;-67
2024/01/23 14:28:26;;;;;;;;;;;;;;;-14.15;38.08;98245.81;6243876;28;19921;-69
2024/01/23 14:31:31;;;;;;;;;;;;;;;-14.20;38.77;98254.81;6243759;28;19917;-70
2024/01/23 14:34:35;;;;;;;;;;;;;;;-14.25;38.13;98248.63;6243576;28;19925;-69
2024/01/23 14:37:36;;;;;;;;;;;;;;;-14.29;38.77;98247.59;6243061;28;20314;-70
2024/01/23 14:40:38;;;;;;;;;;;;;;;-14.33;38.88;98247.34;6242935;28;19928;-67
2024/01/23 14:43:39;;;;;;;;;;;;;;;-14.36;39.01;98244.66;6243335;28;19921;-67
2024/01/23 14:46:43;;;;;;;;;;;;;;;-14.40;38.70;98252.88;6243090;28;19921;-67
2024/01/23 14:49:44;;;;;;;;;;;;;;;-14.44;39.29;98240.84;6246912;28;19927;-67
2024/01/23 14:52:45;;;;;;;;;;;;;;;-14.44;38.99;98240.84;6246753;28;19920;-67
2024/01/23 14:55:48;;;;;;;;;;;;;;;-14.49;39.01;98238.94;6247713;28;19921;-68
2024/01/23 14:58:49;;;;;;;;;;;;;;;-14.49;39.44;98235.50;6246917;28;19921;-67
2024/01/23 15:01:51;;;;;;;;;;;;;;;-14.50;40.77;98239.69;6247089;28;19967;-68
2024/01/23 15:04:52;;;;;;;;;;;;;;;-14.43;39.96;98242.56;6246884;28;20382;-68
2024/01/23 15:08:03;;;;;;;;;;;;;;;-14.43;39.00;98238.41;6247576;28;19921;-68
2024/01/23 15:11:07;;;;;;;;;;;;;;;-14.52;39.32;98248.91;6247454;28;19920;-68
2024/01/23 15:14:11;;;;;;;;;;;;;;;-14.62;39.49;98241.59;6246662;28;19921;-67
2024/01/23 15:17:12;;;;;;;;;;;;;;;-14.73;39.63;98243.53;6249298;28;19931;-68
2024/01/23 15:20:14;;;;;;;;;;;;;;;-14.79;39.22;98242.34;6253556;28;19940;-69
2024/01/23 15:23:15;;;;;;;;;;;;;;;-14.86;39.63;98235.19;6253743;28;20450;-67
2024/01/23 15:26:16;;;;;;;;;;;;;;;-14.93;39.54;98229.81;6271053;28;19927;-68
2024/01/23 15:29:17;;;;;;;;;;;;;;;-15.02;39.79;98219.19;6270631;28;20287;-67
2024/01/23 15:32:20;;;;;;;;;;;;;;;-15.11;39.66;98213.63;6271677;28;19921;-68
2024/01/23 15:35:23;;;;;;;;;;;;;;;-15.16;39.76;98210.84;6271357;28;19955;-67
2024/01/23 15:38:26;;;;;;;;;;;;;;;-15.20;40.65;98208.03;6271433;28;19920;-68
2024/01/23 15:41:27;;;;;;;;;;;;;;;-15.19;40.34;98210.66;6253198;28;19921;-69
2024/01/23 15:44:31;;;;;;;;;;;;;;;-15.20;40.24;98203.00;6271186;28;19944;-68